Time;durP1;ratioP1;P1;durP2;ratioP2;P2;SDS_P1;SDS_P2;PMS_P1;PMS_P2;Temp;Humidity;BMP_temperature;BMP_pressure;BME280_temperature;BME280_humidity;BME280_pressure;Samples;Min_cycle;Max_cycle;Signal;HPM_P1;HPM_P2
2021/07/18 00:00:35;;;;;;;0.70;0.63;;;17.30;99.90;;;;;;5038400;28;20025;-88
2021/07/18 00:03:00;;;;;;;1.93;1.07;;;17.40;99.90;;;;;;5036022;28;20570;-88
2021/07/18 00:05:26;;;;;;;0.47;0.47;;;17.20;99.90;;;;;;5030504;28;20059;-88
2021/07/18 00:07:52;;;;;;;1.83;0.67;;;17.20;99.90;;;;;;5036215;28;20036;-88
2021/07/18 00:10:18;;;;;;;0.57;0.57;;;17.10;99.90;;;;;;5039397;28;20048;-88
2021/07/18 00:12:44;;;;;;;0.60;0.60;;;17.30;99.90;;;;;;5033063;28;20025;-88
2021/07/18 00:15:12;;;;;;;0.60;0.53;;;17.50;99.90;;;;;;5036369;28;20038;-88
2021/07/18 00:17:39;;;;;;;0.65;0.65;;;17.40;99.90;;;;;;5030249;28;20029;-89
2021/07/18 00:20:10;;;;;;;1.20;1.10;;;17.10;99.90;;;;;;5038125;28;20037;-88
2021/07/18 00:22:36;;;;;;;0.95;0.95;;;17.20;99.90;;;;;;5035919;28;20037;-89
2021/07/18 00:25:04;;;;;;;2.33;0.90;;;17.10;99.90;;;;;;5035636;28;20033;-88
2021/07/18 00:27:29;;;;;;;0.63;0.63;;;17.10;99.90;;;;;;5033361;28;20508;-88
2021/07/18 00:29:55;;;;;;;1.07;1.07;;;17.30;99.90;;;;;;5036181;28;20036;-87
2021/07/18 00:32:21;;;;;;;1.03;0.67;;;17.40;99.90;;;;;;5036376;28;20028;-88
2021/07/18 00:34:47;;;;;;;0.67;0.57;;;17.30;99.90;;;;;;5036995;28;20845;-88
2021/07/18 00:37:12;;;;;;;0.33;0.33;;;17.10;99.90;;;;;;5030350;28;20025;-87
2021/07/18 00:39:38;;;;;;;6.50;0.63;;;17.20;99.90;;;;;;5031193;28;20104;-87
2021/07/18 00:42:04;;;;;;;0.80;0.80;;;17.00;99.90;;;;;;5037153;28;20029;-88
2021/07/18 00:44:30;;;;;;;1.08;0.80;;;16.90;99.90;;;;;;5040080;28;20532;-88
2021/07/18 00:46:56;;;;;;;0.77;0.77;;;17.30;99.90;;;;;;5035959;28;20065;-88
2021/07/18 00:49:22;;;;;;;0.30;0.30;;;17.10;99.90;;;;;;5035828;28;20389;-88
2021/07/18 00:51:48;;;;;;;1.10;0.70;;;17.00;99.90;;;;;;5037119;28;20128;-88
2021/07/18 00:54:14;;;;;;;1.13;0.67;;;17.00;99.90;;;;;;5037314;28;20547;-88
2021/07/18 00:56:40;;;;;;;0.95;0.65;;;17.10;99.90;;;;;;5045906;28;20516;-88
2021/07/18 00:59:06;;;;;;;0.30;0.30;;;17.00;99.90;;;;;;5039240;28;20107;-88
2021/07/18 01:01:32;;;;;;;1.00;0.90;;;17.20;99.90;;;;;;5038801;28;20060;-87
2021/07/18 01:03:58;;;;;;;0.57;0.57;;;17.00;99.90;;;;;;5049991;28;20049;-88
2021/07/18 01:06:24;;;;;;;1.23;1.20;;;16.90;99.90;;;;;;5042712;28;20036;-88
2021/07/18 01:08:51;;;;;;;0.60;0.60;;;16.90;99.90;;;;;;5039502;28;20037;-88
2021/07/18 01:11:17;;;;;;;1.85;0.73;;;16.80;99.90;;;;;;5041644;28;20283;-88
2021/07/18 01:13:43;;;;;;;0.20;0.20;;;17.10;99.90;;;;;;5037079;28;20512;-88
2021/07/18 01:16:10;;;;;;;1.07;1.07;;;17.20;99.90;;;;;;5034196;28;20292;-87
2021/07/18 01:18:38;;;;;;;2.03;1.55;;;17.00;99.90;;;;;;5035981;28;20292;-87
2021/07/18 01:21:04;;;;;;;0.40;0.40;;;17.00;99.90;;;;;;5039295;28;20017;-88
2021/07/18 01:23:30;;;;;;;1.17;0.68;;;17.10;99.90;;;;;;5035052;28;20109;-87
2021/07/18 01:25:56;;;;;;;2.80;1.93;;;16.90;99.90;;;;;;5035413;28;20092;-87
2021/07/18 01:28:22;;;;;;;0.40;0.40;;;16.90;99.90;;;;;;5038988;28;20057;-87
2021/07/18 01:30:48;;;;;;;0.40;0.40;;;16.90;99.90;;;;;;5041848;28;20556;-87
2021/07/18 01:33:14;;;;;;;1.02;0.93;;;17.00;99.90;;;;;;5038093;28;20021;-88
2021/07/18 01:35:40;;;;;;;1.97;1.50;;;16.90;99.90;;;;;;5039145;28;20393;-88
2021/07/18 01:38:07;;;;;;;0.90;0.87;;;17.10;99.90;;;;;;5044693;28;20048;-88
2021/07/18 01:40:33;;;;;;;0.95;0.85;;;17.10;99.90;;;;;;5033453;28;20508;-88
2021/07/18 01:42:59;;;;;;;0.20;0.20;;;17.00;99.90;;;;;;5036243;28;20116;-87
2021/07/18 01:45:25;;;;;;;0.53;0.53;;;17.10;99.90;;;;;;5039852;28;20029;-88
2021/07/18 01:47:51;;;;;;;0.60;0.60;;;17.00;99.90;;;;;;5034745;28;20078;-88
2021/07/18 01:50:18;;;;;;;0.30;0.30;;;17.00;99.90;;;;;;5035042;28;20040;-87
2021/07/18 01:52:44;;;;;;;0.63;0.60;;;17.10;99.90;;;;;;5035614;28;20041;-88
2021/07/18 01:55:11;;;;;;;1.13;0.57;;;16.90;99.90;;;;;;5039398;28;20382;-88
2021/07/18 01:57:37;;;;;;;;;;;16.90;99.90;;;;;;5035300;28;20040;-88
2021/07/18 02:00:09;;;;;;;0.60;0.60;;;16.90;99.90;;;;;;5039455;28;19925;-88
2021/07/18 02:02:34;;;;;;;1.15;1.05;;;16.90;99.90;;;;;;5040268;28;20021;-88
2021/07/18 02:05:00;;;;;;;0.40;0.40;;;16.90;99.90;;;;;;5042190;28;20025;-87
2021/07/18 02:07:27;;;;;;;0.53;0.50;;;16.70;99.90;;;;;;5044992;28;20512;-88
2021/07/18 02:09:56;;;;;;;1.40;0.80;;;16.60;99.90;;;;;;5034930;28;20040;-88
2021/07/18 02:12:22;;;;;;;1.27;0.70;;;16.70;99.90;;;;;;5043913;28;20040;-87
2021/07/18 02:14:48;;;;;;;1.20;0.68;;;16.70;99.90;;;;;;5038332;28;20214;-88
2021/07/18 02:17:14;;;;;;;1.33;1.20;;;16.60;99.90;;;;;;5034840;28;20556;-87
2021/07/18 02:19:40;;;;;;;0.40;0.40;;;16.50;99.90;;;;;;5041168;28;20404;-88
2021/07/18 02:22:05;;;;;;;2.03;1.23;;;16.70;99.90;;;;;;5038660;28;20033;-88
2021/07/18 02:24:31;;;;;;;0.20;0.20;;;16.70;99.90;;;;;;5040354;28;20029;-87
2021/07/18 02:26:57;;;;;;;0.30;0.30;;;16.60;99.90;;;;;;5039625;28;20060;-88
2021/07/18 02:29:23;;;;;;;0.80;0.80;;;16.60;99.90;;;;;;5038957;28;20099;-88
2021/07/18 02:31:51;;;;;;;0.87;0.73;;;16.70;99.90;;;;;;5036652;28;20029;-88
2021/07/18 02:34:17;;;;;;;0.82;0.82;;;16.60;99.90;;;;;;5035524;28;20558;-88
2021/07/18 02:36:43;;;;;;;1.83;1.73;;;16.70;99.90;;;;;;5039514;28;20568;-88
2021/07/18 02:39:09;;;;;;;0.70;0.70;;;16.80;99.90;;;;;;5031884;28;20144;-88
2021/07/18 02:41:35;;;;;;;2.37;1.00;;;16.70;99.90;;;;;;5039139;28;20016;-88
2021/07/18 02:44:03;;;;;;;1.03;1.00;;;16.70;99.90;;;;;;5031908;28;20033;-87
2021/07/18 02:46:29;;;;;;;1.02;1.02;;;16.60;99.90;;;;;;5034836;28;20032;-88
2021/07/18 02:48:54;;;;;;;0.97;0.97;;;16.70;99.90;;;;;;5042109;28;20025;-88
2021/07/18 02:51:20;;;;;;;1.80;1.57;;;16.50;99.90;;;;;;5034397;28;20044;-87
2021/07/18 02:53:46;;;;;;;0.23;0.23;;;16.30;99.90;;;;;;5032580;28;20092;-87
2021/07/18 02:56:12;;;;;;;0.50;0.50;;;16.30;99.90;;;;;;5037660;28;20568;-87
2021/07/18 02:58:37;;;;;;;0.67;0.63;;;16.30;99.90;;;;;;5037904;28;20099;-88
2021/07/18 03:01:03;;;;;;;0.70;0.70;;;16.40;99.90;;;;;;5036863;28;20029;-88
2021/07/18 03:03:29;;;;;;;0.67;0.67;;;16.30;99.90;;;;;;5035992;28;20033;-88
2021/07/18 03:05:55;;;;;;;0.30;0.30;;;16.30;99.90;;;;;;5039671;28;20413;-88
2021/07/18 03:08:21;;;;;;;1.70;0.97;;;16.30;99.90;;;;;;5039628;28;20076;-88
2021/07/18 03:10:46;;;;;;;1.20;1.10;;;16.20;99.90;;;;;;5037850;28;20163;-88
2021/07/18 03:13:12;;;;;;;0.60;0.57;;;16.30;99.90;;;;;;5033660;28;20539;-89
2021/07/18 03:15:38;;;;;;;8.83;3.53;;;16.30;99.90;;;;;;5032953;28;20044;-88
2021/07/18 03:18:06;;;;;;;0.80;0.80;;;16.30;99.90;;;;;;5031770;28;20136;-89
2021/07/18 03:20:33;;;;;;;2.75;1.60;;;16.50;99.90;;;;;;5039160;28;20033;-88
2021/07/18 03:22:59;;;;;;;0.68;0.68;;;16.50;99.90;;;;;;5037650;28;20755;-88
2021/07/18 03:25:25;;;;;;;1.23;0.83;;;16.50;99.90;;;;;;5040243;28;20025;-89
2021/07/18 03:27:51;;;;;;;1.70;0.73;;;16.50;99.90;;;;;;5038063;28;20698;-88
2021/07/18 03:30:19;;;;;;;0.67;0.67;;;16.50;99.90;;;;;;5033243;28;20090;-88
2021/07/18 03:32:45;;;;;;;0.57;0.57;;;16.60;99.90;;;;;;5033235;28;20065;-89
2021/07/18 03:35:11;;;;;;;0.63;0.63;;;16.60;99.90;;;;;;5038322;28;20522;-88
2021/07/18 03:37:37;;;;;;;;;;;16.70;99.90;;;;;;5032412;28;20104;-88
2021/07/18 03:40:15;;;;;;;1.02;0.85;;;16.90;99.90;;;;;;5037497;28;19917;-88
2021/07/18 03:42:41;;;;;;;0.63;0.63;;;16.90;99.90;;;;;;5036030;28;20033;-88
2021/07/18 03:45:08;;;;;;;1.77;1.58;;;16.90;99.90;;;;;;5042028;28;20033;-88
2021/07/18 03:47:35;;;;;;;0.88;0.85;;;17.10;99.90;;;;;;5030343;28;20103;-88
2021/07/18 03:50:01;;;;;;;0.38;0.38;;;17.00;99.90;;;;;;5036268;28;20033;-88
2021/07/18 03:52:27;;;;;;;2.53;1.77;;;17.00;99.90;;;;;;5035189;28;20029;-88
2021/07/18 03:54:53;;;;;;;0.50;0.47;;;17.10;99.90;;;;;;5032732;28;20052;-88
2021/07/18 03:57:18;;;;;;;1.20;0.90;;;17.00;99.90;;;;;;5033674;28;20529;-88
2021/07/18 03:59:44;;;;;;;2.00;1.27;;;16.90;99.90;;;;;;5038432;28;20033;-88
2021/07/18 04:02:10;;;;;;;0.50;0.50;;;16.90;99.90;;;;;;5035621;28;20576;-88
2021/07/18 04:04:36;;;;;;;0.50;0.50;;;16.70;99.90;;;;;;5037056;28;20467;-88
2021/07/18 04:07:02;;;;;;;0.83;0.77;;;16.50;99.90;;;;;;5037307;28;20108;-85
2021/07/18 04:09:28;;;;;;;0.60;0.60;;;16.70;99.90;;;;;;5035447;28;20135;-87
2021/07/18 04:11:54;;;;;;;4.00;2.50;;;16.70;99.90;;;;;;5032911;28;20060;-87
2021/07/18 04:14:20;;;;;;;1.30;1.20;;;16.60;99.90;;;;;;5040494;28;20065;-87
2021/07/18 04:16:46;;;;;;;1.67;1.50;;;16.60;99.90;;;;;;5041388;28;20459;-87
2021/07/18 04:19:11;;;;;;;0.57;0.47;;;16.60;99.90;;;;;;5032535;28;20288;-87
2021/07/18 04:21:37;;;;;;;0.37;0.37;;;16.60;99.90;;;;;;5038613;28;20037;-87
2021/07/18 04:24:03;;;;;;;0.50;0.50;;;16.50;99.90;;;;;;5043916;28;20029;-85
2021/07/18 04:26:29;;;;;;;1.65;1.42;;;16.60;99.90;;;;;;5039283;28;20021;-87
2021/07/18 04:28:55;;;;;;;1.67;1.20;;;16.60;99.90;;;;;;5034354;28;20083;-87
2021/07/18 04:31:21;;;;;;;0.60;0.60;;;16.60;99.90;;;;;;5032904;28;20025;-87
2021/07/18 04:33:49;;;;;;;0.63;0.40;;;16.70;99.90;;;;;;5041719;28;20914;-87
2021/07/18 04:36:15;;;;;;;4.25;1.38;;;16.70;99.90;;;;;;5041534;28;20029;-88
2021/07/18 04:38:40;;;;;;;1.07;0.93;;;16.60;99.90;;;;;;5045148;28;20091;-87
2021/07/18 04:41:06;;;;;;;0.70;0.70;;;16.70;99.90;;;;;;5039672;28;20500;-87
2021/07/18 04:43:32;;;;;;;1.40;0.70;;;16.80;99.90;;;;;;5045940;28;20116;-87
2021/07/18 04:45:58;;;;;;;0.47;0.43;;;17.10;99.90;;;;;;5040684;28;20017;-87
2021/07/18 04:48:23;;;;;;;0.43;0.43;;;17.20;99.90;;;;;;5038846;28;20080;-86
2021/07/18 04:50:49;;;;;;;0.50;0.50;;;17.40;99.90;;;;;;5035993;28;20047;-87
2021/07/18 04:53:15;;;;;;;0.70;0.70;;;17.70;99.90;;;;;;5039525;28;20075;-88
2021/07/18 04:55:41;;;;;;;0.40;0.40;;;17.70;99.90;;;;;;5036456;28;20037;-88
2021/07/18 04:58:06;;;;;;;6.00;0.70;;;17.90;99.90;;;;;;5037627;28;20024;-87
2021/07/18 05:00:32;;;;;;;0.93;0.93;;;18.20;99.90;;;;;;5033568;28;20040;-87
2021/07/18 05:02:58;;;;;;;0.40;0.40;;;18.40;99.90;;;;;;5038661;28;20040;-88
2021/07/18 05:05:24;;;;;;;1.03;0.90;;;18.70;99.90;;;;;;5045082;28;20568;-87
2021/07/18 05:07:55;;;;;;;3.93;0.93;;;18.90;99.90;;;;;;5044215;28;20056;-87
2021/07/18 05:10:24;;;;;;;0.70;0.70;;;19.40;99.90;;;;;;5040603;28;20116;-88
2021/07/18 05:12:52;;;;;;;6.45;1.00;;;19.60;99.90;;;;;;5035566;28;20061;-89
2021/07/18 05:15:20;;;;;;;0.65;0.65;;;19.70;99.90;;;;;;5037812;28;20044;-89
2021/07/18 05:17:46;;;;;;;0.35;0.35;;;20.00;99.90;;;;;;5039865;28;20033;-89
2021/07/18 05:20:14;;;;;;;1.17;0.90;;;20.20;99.90;;;;;;5032295;28;20037;-88
2021/07/18 05:22:40;;;;;;;1.17;0.70;;;20.10;99.90;;;;;;5037451;28;20739;-88
2021/07/18 05:25:08;;;;;;;0.50;0.50;;;20.90;99.90;;;;;;5035982;28;20083;-88
2021/07/18 05:27:36;;;;;;;0.40;0.40;;;21.10;99.90;;;;;;5040849;28;20034;-87
2021/07/18 05:30:07;;;;;;;5.57;1.20;;;21.40;99.90;;;;;;5038909;28;20146;-87
2021/07/18 05:32:34;;;;;;;0.47;0.47;;;21.60;99.90;;;;;;5038153;28;20034;-87
2021/07/18 05:35:00;;;;;;;3.35;0.82;;;21.90;99.90;;;;;;5039493;28;20402;-89
2021/07/18 05:37:25;;;;;;;0.50;0.50;;;22.60;99.90;;;;;;5042417;28;20040;-88
2021/07/18 05:39:51;;;;;;;0.20;0.10;;;22.90;99.90;;;;;;5038410;28;20459;-88
2021/07/18 05:42:17;;;;;;;0.70;0.65;;;22.90;99.90;;;;;;5041990;28;20306;-88
2021/07/18 05:44:43;;;;;;;0.73;0.73;;;23.50;99.90;;;;;;5043275;28;21490;-88
2021/07/18 05:47:10;;;;;;;5.57;2.75;;;23.20;99.90;;;;;;5039101;28;20321;-88
2021/07/18 05:49:36;;;;;;;0.60;0.55;;;23.20;99.90;;;;;;5037022;28;20497;-88
2021/07/18 05:52:03;;;;;;;0.57;0.57;;;22.90;99.90;;;;;;5036056;28;20032;-88
2021/07/18 05:54:29;;;;;;;0.38;0.38;;;23.70;99.90;;;;;;5040378;28;20045;-88
2021/07/18 05:56:55;;;;;;;1.45;0.95;;;23.70;99.90;;;;;;5046697;28;20631;-89
2021/07/18 05:59:20;;;;;;;6.88;0.57;;;23.30;99.90;;;;;;5036027;28;20037;-89
2021/07/18 06:01:46;;;;;;;0.53;0.43;;;24.00;99.90;;;;;;5037473;28;20029;-85
2021/07/18 06:04:12;;;;;;;0.80;0.80;;;24.40;99.90;;;;;;5037782;28;20356;-85
2021/07/18 06:06:38;;;;;;;0.47;0.47;;;24.60;99.90;;;;;;5034185;28;20112;-86
2021/07/18 06:09:03;;;;;;;1.85;0.65;;;24.10;99.90;;;;;;5045490;28;20183;-87
2021/07/18 06:11:29;;;;;;;4.18;1.58;;;25.10;99.90;;;;;;5041113;28;20036;-87
2021/07/18 06:13:55;;;;;;;0.98;0.55;;;24.60;99.90;;;;;;5041341;28;20025;-87
2021/07/18 06:16:21;;;;;;;0.35;0.35;;;25.00;99.90;;;;;;5031261;28;20638;-86
2021/07/18 06:18:47;;;;;;;3.00;0.93;;;25.10;99.90;;;;;;5030180;28;20072;-86
2021/07/18 06:21:12;;;;;;;0.47;0.38;;;25.20;99.90;;;;;;5042006;28;20059;-86
2021/07/18 06:23:38;;;;;;;0.50;0.50;;;25.50;99.90;;;;;;5039514;28;20024;-87
2021/07/18 06:26:05;;;;;;;0.50;0.50;;;26.60;99.90;;;;;;5038212;28;20032;-87
2021/07/18 06:28:32;;;;;;;0.85;0.63;;;25.90;99.90;;;;;;5045763;28;20032;-87
2021/07/18 06:30:58;;;;;;;0.45;0.45;;;26.30;99.90;;;;;;5029834;28;20029;-86
2021/07/18 06:33:23;;;;;;;0.28;0.28;;;25.60;99.90;;;;;;5028735;28;20025;-86
2021/07/18 06:35:50;;;;;;;2.80;1.35;;;26.50;99.80;;;;;;5028605;28;20485;-86
2021/07/18 06:38:16;;;;;;;0.47;0.47;;;27.70;97.70;;;;;;5029803;28;20107;-85
2021/07/18 06:40:42;;;;;;;0.95;0.38;;;27.50;97.30;;;;;;5029805;28;20068;-86
2021/07/18 06:43:08;;;;;;;0.20;0.17;;;27.20;97.40;;;;;;5034162;28;20779;-86
2021/07/18 06:45:34;;;;;;;0.22;0.13;;;29.30;95.40;;;;;;5032286;28;20044;-85
2021/07/18 06:48:00;;;;;;;0.30;0.30;;;28.70;94.70;;;;;;5037233;28;20057;-85
2021/07/18 06:50:26;;;;;;;0.93;0.47;;;28.40;96.20;;;;;;5032190;28;20407;-85
2021/07/18 06:52:52;;;;;;;;;;;28.00;95.10;;;;;;5033717;28;20037;-85
2021/07/18 06:55:18;;;;;;;3.42;0.80;;;27.40;95.90;;;;;;5042419;28;19916;-86
2021/07/18 06:57:50;;;;;;;0.00;0.00;;;27.20;96.50;;;;;;5035495;28;20023;-86
2021/07/18 07:00:17;;;;;;;1.55;0.60;;;28.50;94.20;;;;;;5032185;28;20052;-86
2021/07/18 07:02:44;;;;;;;0.43;0.40;;;29.40;92.60;;;;;;5030311;28;20033;-86
2021/07/18 07:05:11;;;;;;;0.10;0.10;;;29.00;92.70;;;;;;5039329;28;20025;-85
2021/07/18 07:07:37;;;;;;;0.10;0.10;;;29.10;92.70;;;;;;5032347;28;20057;-86
2021/07/18 07:10:05;;;;;;;0.47;0.47;;;28.00;93.20;;;;;;5037650;28;20032;-85
2021/07/18 07:12:32;;;;;;;0.20;0.20;;;28.80;92.60;;;;;;5031219;28;20040;-85
2021/07/18 07:15:00;;;;;;;0.50;0.50;;;29.60;92.00;;;;;;5034506;28;20079;-85
2021/07/18 07:17:26;;;;;;;0.28;0.28;;;29.40;91.30;;;;;;5031701;28;20461;-86
2021/07/18 07:19:52;;;;;;;;;;;29.30;90.40;;;;;;5040321;28;20024;-85
2021/07/18 07:22:19;;;;;;;0.10;0.10;;;29.80;91.00;;;;;;5031810;28;19913;-86
2021/07/18 07:24:44;;;;;;;0.45;0.45;;;30.30;89.70;;;;;;5048241;28;20026;-86
2021/07/18 07:27:15;;;;;;;;;;;29.10;91.30;;;;;;5037579;28;20033;-87
2021/07/18 07:29:41;;;;;;;1.33;0.77;;;30.00;89.40;;;;;;5033177;28;19912;-87
2021/07/18 07:32:08;;;;;;;0.73;0.28;;;30.20;87.40;;;;;;5035240;28;20037;-88
2021/07/18 07:34:34;;;;;;;0.82;0.82;;;31.90;84.10;;;;;;5040441;28;20029;-88
2021/07/18 07:37:01;;;;;;;0.43;0.40;;;31.90;82.30;;;;;;5033147;28;20037;-87
2021/07/18 07:39:27;;;;;;;0.30;0.30;;;33.20;76.70;;;;;;5028254;28;20109;-87
2021/07/18 07:41:54;;;;;;;0.63;0.63;;;32.20;80.80;;;;;;5030476;28;20500;-87
2021/07/18 07:44:19;;;;;;;0.28;0.28;;;30.90;81.30;;;;;;5046909;28;20017;-86
2021/07/18 07:46:46;;;;;;;0.03;0.03;;;31.40;77.10;;;;;;5035795;28;20474;-87
2021/07/18 07:49:12;;;;;;;0.55;0.55;;;32.30;77.80;;;;;;5033349;28;20038;-87
2021/07/18 07:51:38;;;;;;;0.60;0.60;;;32.10;75.70;;;;;;5050142;28;20728;-87
2021/07/18 07:54:04;;;;;;;0.57;0.57;;;31.90;73.50;;;;;;5036972;28;20090;-88
2021/07/18 07:56:31;;;;;;;0.70;0.43;;;33.80;70.90;;;;;;5049336;28;20047;-88
2021/07/18 07:58:56;;;;;;;0.28;0.28;;;34.10;70.00;;;;;;5049929;28;20062;-87
2021/07/18 08:01:24;;;;;;;0.60;0.60;;;33.10;70.70;;;;;;5051669;28;20036;-87
2021/07/18 08:03:51;;;;;;;0.47;0.47;;;33.10;73.30;;;;;;5051432;28;20106;-86
2021/07/18 08:06:17;;;;;;;0.20;0.20;;;34.50;66.40;;;;;;5037594;28;20532;-86
2021/07/18 08:08:43;;;;;;;1.00;1.00;;;34.90;65.10;;;;;;5031756;28;20052;-87
2021/07/18 08:11:10;;;;;;;7.88;1.23;;;35.20;57.80;;;;;;5042264;28;20056;-87
2021/07/18 08:13:37;;;;;;;0.40;0.40;;;36.50;56.40;;;;;;5052429;28;20059;-87
2021/07/18 08:16:04;;;;;;;0.20;0.20;;;34.70;60.00;;;;;;5052340;28;20028;-86
2021/07/18 08:18:30;;;;;;;0.85;0.60;;;34.80;59.30;;;;;;5050887;28;20021;-87
2021/07/18 08:20:59;;;;;;;0.80;0.30;;;34.70;58.80;;;;;;5052399;28;20029;-86
2021/07/18 08:23:25;;;;;;;4.13;0.90;;;34.20;53.90;;;;;;5045072;28;20041;-88
2021/07/18 08:25:50;;;;;;;2.05;0.30;;;33.50;57.70;;;;;;5042710;28;20143;-86
2021/07/18 08:28:16;;;;;;;0.60;0.60;;;35.00;54.60;;;;;;5031754;28;20056;-86
2021/07/18 08:30:42;;;;;;;0.40;0.40;;;34.60;54.20;;;;;;5032260;28;20033;-87
2021/07/18 08:33:09;;;;;;;0.32;0.32;;;33.50;58.20;;;;;;5032296;28;20045;-87
2021/07/18 08:35:35;;;;;;;1.58;0.63;;;34.70;56.40;;;;;;5050668;28;20045;-87
2021/07/18 08:38:01;;;;;;;0.30;0.30;;;36.10;51.80;;;;;;5052090;28;20114;-87
2021/07/18 08:40:29;;;;;;;0.15;0.15;;;34.80;51.40;;;;;;5048706;28;20064;-87
2021/07/18 08:42:55;;;;;;;0.47;0.38;;;34.20;50.40;;;;;;5052074;28;20036;-87
2021/07/18 08:45:22;;;;;;;0.30;0.30;;;36.50;50.50;;;;;;5050723;28;20041;-87
2021/07/18 08:47:48;;;;;;;1.08;0.25;;;34.90;63.60;;;;;;5052145;28;20029;-87
2021/07/18 08:50:14;;;;;;;2.38;0.57;;;33.70;55.50;;;;;;5044964;28;20036;-87
2021/07/18 08:52:46;;;;;;;0.00;0.00;;;33.70;54.30;;;;;;5031920;28;20024;-87
2021/07/18 08:55:12;;;;;;;0.22;0.22;;;37.10;46.40;;;;;;5046741;28;20049;-87
2021/07/18 08:57:39;;;;;;;0.32;0.30;;;36.70;44.70;;;;;;5044991;28;20055;-87
2021/07/18 09:00:06;;;;;;;1.05;0.55;;;35.80;46.40;;;;;;5031577;28;20022;-86
2021/07/18 09:02:33;;;;;;;0.20;0.20;;;34.20;52.00;;;;;;5042947;28;20021;-87
2021/07/18 09:05:02;;;;;;;2.20;1.00;;;35.70;46.60;;;;;;5043783;28;20124;-87
2021/07/18 09:07:28;;;;;;;0.20;0.20;;;33.20;52.20;;;;;;5032784;28;20702;-86
2021/07/18 09:10:07;;;;;;;0.88;0.60;;;34.20;48.10;;;;;;5036792;28;20037;-89
2021/07/18 09:12:33;;;;;;;0.30;0.30;;;36.40;44.80;;;;;;5034505;28;20488;-88
2021/07/18 09:15:00;;;;;;;0.57;0.30;;;36.70;44.50;;;;;;5051421;28;20034;-87
2021/07/18 09:17:33;;;;;;;0.68;0.60;;;35.90;44.10;;;;;;5050649;28;20607;-89
2021/07/18 09:20:12;;;;;;;0.30;0.30;;;33.90;48.20;;;;;;5051324;28;20056;-89
2021/07/18 09:22:38;;;;;;;0.45;0.45;;;34.90;44.80;;;;;;5050934;28;20036;-87
2021/07/18 09:25:04;;;;;;;;;;;34.50;47.50;;;;;;5051180;28;20037;-86
2021/07/18 09:27:33;;;;;;;0.20;0.20;;;35.00;44.80;;;;;;5046173;28;19948;-88
2021/07/18 09:30:09;;;;;;;0.30;0.30;;;35.70;43.20;;;;;;5038149;28;20099;-87
2021/07/18 09:32:35;;;;;;;;;;;35.70;38.60;;;;;;5035485;28;20036;-88
2021/07/18 09:35:07;;;;;;;0.45;0.45;;;35.30;44.20;;;;;;5035566;28;19967;-87
2021/07/18 09:37:39;;;;;;;0.68;0.68;;;36.40;40.30;;;;;;5039750;28;20435;-87
2021/07/18 09:40:24;;;;;;;0.22;0.22;;;37.00;39.20;;;;;;5042662;28;20568;-86
2021/07/18 09:42:56;;;;;;;0.65;0.65;;;38.80;33.40;;;;;;5044347;28;20017;-86
2021/07/18 09:45:30;;;;;;;2.45;0.93;;;37.90;33.70;;;;;;5030417;28;20037;-85
2021/07/18 09:48:05;;;;;;;1.20;1.00;;;36.10;37.30;;;;;;5045237;28;20052;-86
2021/07/18 09:50:39;;;;;;;0.60;0.47;;;35.20;39.30;;;;;;5041317;28;20037;-86
2021/07/18 09:53:16;;;;;;;0.77;0.77;;;36.50;36.40;;;;;;5030878;28;20021;-86
2021/07/18 09:55:59;;;;;;;0.38;0.38;;;36.10;38.60;;;;;;5030309;28;20045;-86
2021/07/18 09:58:26;;;;;;;0.75;0.22;;;36.10;38.20;;;;;;5030590;28;20040;-86
2021/07/18 10:00:52;;;;;;;1.17;0.38;;;35.20;38.10;;;;;;5046976;28;20497;-86
2021/07/18 10:03:22;;;;;;;0.40;0.25;;;35.70;34.30;;;;;;5037060;28;20112;-86
2021/07/18 10:06:32;;;;;;;1.63;0.52;;;35.00;41.00;;;;;;5036801;28;20055;-86
2021/07/18 10:09:02;;;;;;;1.85;0.93;;;35.90;37.10;;;;;;5038078;28;20037;-86
2021/07/18 10:11:29;;;;;;;0.20;0.20;;;35.20;39.30;;;;;;5045145;28;20037;-85
2021/07/18 10:13:57;;;;;;;0.40;0.40;;;35.40;36.70;;;;;;5029558;28;20117;-85
2021/07/18 10:16:26;;;;;;;0.70;0.20;;;36.80;35.40;;;;;;5030589;28;20048;-86
2021/07/18 10:18:53;;;;;;;0.70;0.65;;;36.40;34.50;;;;;;5037338;28;20043;-86
2021/07/18 10:21:24;;;;;;;0.60;0.60;;;36.60;34.40;;;;;;5035356;28;20723;-86
2021/07/18 10:23:53;;;;;;;0.30;0.30;;;36.10;30.80;;;;;;5038191;28;20115;-85
2021/07/18 10:26:27;;;;;;;1.35;0.73;;;39.70;26.60;;;;;;5038752;28;20033;-85
2021/07/18 10:28:54;;;;;;;0.38;0.38;;;36.20;34.20;;;;;;5027247;28;20763;-84
2021/07/18 10:31:27;;;;;;;0.20;0.20;;;35.30;35.00;;;;;;5027488;28;20548;-85
2021/07/18 10:33:55;;;;;;;2.47;0.45;;;35.30;34.10;;;;;;5027127;28;20022;-85
2021/07/18 10:36:23;;;;;;;1.65;0.77;;;37.20;31.00;;;;;;5010359;28;20521;-85
2021/07/18 10:38:50;;;;;;;0.20;0.20;;;38.20;29.80;;;;;;5026605;28;20044;-85
2021/07/18 10:41:16;;;;;;;0.73;0.70;;;39.20;26.50;;;;;;5027079;28;20025;-85
2021/07/18 10:43:46;;;;;;;0.32;0.32;;;37.40;27.50;;;;;;5029320;28;20449;-85
2021/07/18 10:46:15;;;;;;;0.45;0.45;;;35.70;30.40;;;;;;5028648;28;20607;-85
2021/07/18 10:48:50;;;;;;;2.10;1.02;;;36.00;30.40;;;;;;5029420;28;20106;-85
2021/07/18 10:51:20;;;;;;;3.45;1.08;;;37.90;28.20;;;;;;5029679;28;20028;-85
2021/07/18 10:53:49;;;;;;;0.65;0.28;;;37.30;28.40;;;;;;5029253;28;20061;-85
2021/07/18 10:56:19;;;;;;;0.45;0.40;;;37.80;27.40;;;;;;5029468;28;20045;-85
2021/07/18 10:58:50;;;;;;;0.00;0.00;;;38.60;24.80;;;;;;5029255;28;20051;-85
2021/07/18 11:01:36;;;;;;;2.35;0.60;;;39.20;23.60;;;;;;5029444;28;20103;-85
2021/07/18 11:04:04;;;;;;;1.98;0.30;;;39.50;21.80;;;;;;5029239;28;20028;-85
2021/07/18 11:06:39;;;;;;;0.10;0.10;;;38.30;26.30;;;;;;5029457;28;20033;-85
2021/07/18 11:09:18;;;;;;;3.00;0.52;;;36.50;28.20;;;;;;5027599;28;20409;-85
2021/07/18 11:11:57;;;;;;;0.55;0.55;;;38.00;25.00;;;;;;5029299;28;20017;-85
2021/07/18 11:14:34;;;;;;;0.20;0.20;;;36.50;28.10;;;;;;5042433;28;20111;-85
2021/07/18 11:17:06;;;;;;;0.40;0.32;;;35.60;29.80;;;;;;5049020;28;20029;-85
2021/07/18 11:19:35;;;;;;;1.10;0.63;;;36.20;28.10;;;;;;5047753;28;20031;-85
2021/07/18 11:22:10;;;;;;;0.50;0.50;;;38.30;25.70;;;;;;5048842;28;20033;-85
2021/07/18 11:24:55;;;;;;;0.52;0.52;;;40.00;22.50;;;;;;5047519;28;20393;-85
2021/07/18 11:27:33;;;;;;;5.17;1.00;;;38.40;23.10;;;;;;5047594;28;20060;-85
2021/07/18 11:30:04;;;;;;;0.73;0.38;;;37.90;24.10;;;;;;5047409;28;20037;-85
2021/07/18 11:32:32;;;;;;;0.35;0.35;;;35.20;25.90;;;;;;5048938;28;20091;-85
2021/07/18 11:35:00;;;;;;;1.13;1.05;;;35.10;28.70;;;;;;5048759;28;20103;-85
2021/07/18 11:37:29;;;;;;;0.57;0.32;;;34.30;31.30;;;;;;5048451;28;20036;-85
2021/07/18 11:40:04;;;;;;;0.38;0.38;;;31.40;33.90;;;;;;5047553;28;20025;-85
2021/07/18 11:42:30;;;;;;;0.95;0.52;;;30.00;38.00;;;;;;5047542;28;20057;-84
2021/07/18 11:44:56;;;;;;;2.50;1.08;;;28.90;40.00;;;;;;5048697;28;20060;-85
2021/07/18 11:47:27;;;;;;;6.10;1.27;;;29.20;40.40;;;;;;5048761;28;20760;-85
2021/07/18 11:49:53;;;;;;;0.17;0.17;;;29.20;41.00;;;;;;5048679;28;20033;-85
2021/07/18 11:52:22;;;;;;;0.45;0.45;;;29.70;40.00;;;;;;5047410;28;20044;-85
2021/07/18 11:54:48;;;;;;;0.68;0.63;;;29.20;41.90;;;;;;5048819;28;20045;-84
2021/07/18 11:57:17;;;;;;;0.10;0.10;;;29.80;40.70;;;;;;5048719;28;21172;-84
2021/07/18 11:59:45;;;;;;;0.85;0.65;;;29.50;42.10;;;;;;5049041;28;20043;-85
2021/07/18 12:02:12;;;;;;;0.20;0.20;;;29.60;42.30;;;;;;5048429;28;20053;-85
2021/07/18 12:04:40;;;;;;;0.43;0.40;;;29.70;42.50;;;;;;5049112;28;20484;-85
2021/07/18 12:07:09;;;;;;;0.40;0.40;;;29.80;42.30;;;;;;5048806;28;20031;-85
2021/07/18 12:09:39;;;;;;;0.75;0.75;;;29.40;42.30;;;;;;5047754;28;20090;-85
2021/07/18 12:12:11;;;;;;;0.20;0.20;;;29.30;43.10;;;;;;5049074;28;20021;-84
2021/07/18 12:14:38;;;;;;;1.98;1.27;;;29.20;42.50;;;;;;5047868;28;20108;-84
2021/07/18 12:17:05;;;;;;;0.70;0.38;;;28.90;43.10;;;;;;5049001;28;20131;-85
2021/07/18 12:19:33;;;;;;;0.40;0.40;;;29.10;44.60;;;;;;5049125;28;20025;-85
2021/07/18 12:22:04;;;;;;;1.98;0.45;;;29.10;43.10;;;;;;5048955;28;20044;-84
2021/07/18 12:24:42;;;;;;;2.92;1.23;;;29.00;43.20;;;;;;5049265;28;20040;-85
2021/07/18 12:27:11;;;;;;;0.60;0.50;;;28.80;42.90;;;;;;5048847;28;20549;-85
2021/07/18 12:29:44;;;;;;;0.30;0.30;;;28.90;43.50;;;;;;5048837;28;20021;-85
2021/07/18 12:32:11;;;;;;;0.25;0.25;;;28.80;42.30;;;;;;5048681;28;20937;-85
2021/07/18 12:34:38;;;;;;;1.40;0.65;;;29.10;43.30;;;;;;5048796;28;20017;-85
2021/07/18 12:37:09;;;;;;;0.13;0.13;;;29.10;43.80;;;;;;5050546;28;20025;-85
2021/07/18 12:39:37;;;;;;;0.10;0.10;;;29.00;43.00;;;;;;5051137;28;20116;-85
2021/07/18 12:42:06;;;;;;;0.35;0.35;;;29.10;42.70;;;;;;5052348;28;20029;-85
2021/07/18 12:44:36;;;;;;;0.20;0.20;;;29.00;42.30;;;;;;5051887;28;20075;-85
2021/07/18 12:47:18;;;;;;;0.13;0.13;;;28.80;42.30;;;;;;5052147;28;20040;-85
2021/07/18 12:49:44;;;;;;;6.85;1.75;;;28.80;41.50;;;;;;5048016;28;20067;-85